CCM156 LFKJ-LFML
Flight info
| Callsign | CCM156 |
|---|---|
| Flight time | 0h 39m |
| Altitude | 24000 |
| Route | TINOT |
| Aircraft | A320/M-SDE3FGHIRWY/LB1 |
Departure
| Time | 2026-04-29 19:24 |
|---|---|
| Airport | Ajaccio Napoléon Bonaparte airport (LFKJ) |
Arrival
| Time | 2026-04-29 20:03 |
|---|---|
| Airport | Marseille Provence Airport (LFML) |
| Time | Latitude | Longitude | Altitude | Speed | Heading |
|---|---|---|---|---|---|
| 2026-04-29 18:52 | 41.91956 | 8.79576 | 26 ft | 0 kts | 345° |
| 2026-04-29 19:16 | 41.91969 | 8.79573 | 29 ft | 4 kts | 353° |
| 2026-04-29 19:17 | 41.92000 | 8.79600 | 28 ft | 8 kts | 62° |
| 2026-04-29 19:17 | 41.92025 | 8.79682 | 28 ft | 12 kts | 45° |
| 2026-04-29 19:17 | 41.92111 | 8.79740 | 26 ft | 15 kts | 25° |
| 2026-04-29 19:17 | 41.92200 | 8.79797 | 28 ft | 14 kts | 25° |
| 2026-04-29 19:18 | 41.92281 | 8.79847 | 30 ft | 12 kts | 24° |
| 2026-04-29 19:18 | 41.92330 | 8.79877 | 29 ft | 11 kts | 24° |
| 2026-04-29 19:18 | 41.92418 | 8.79930 | 27 ft | 10 kts | 24° |
| 2026-04-29 19:18 | 41.92475 | 8.79965 | 28 ft | 8 kts | 25° |
| 2026-04-29 19:19 | 41.92524 | 8.79996 | 29 ft | 7 kts | 26° |
| 2026-04-29 19:19 | 41.92567 | 8.80023 | 27 ft | 6 kts | 26° |
| 2026-04-29 19:19 | 41.92632 | 8.80065 | 28 ft | 14 kts | 25° |
| 2026-04-29 19:19 | 41.92716 | 8.80117 | 26 ft | 12 kts | 26° |
| 2026-04-29 19:20 | 41.92780 | 8.80171 | 27 ft | 10 kts | 41° |
| 2026-04-29 19:20 | 41.92829 | 8.80228 | 27 ft | 10 kts | 42° |
| 2026-04-29 19:20 | 41.92887 | 8.80306 | 28 ft | 13 kts | 46° |
| 2026-04-29 19:20 | 41.92945 | 8.80385 | 30 ft | 10 kts | 46° |
| 2026-04-29 19:21 | 41.92972 | 8.80456 | 31 ft | 7 kts | 77° |
| 2026-04-29 19:21 | 41.92957 | 8.80488 | 32 ft | 3 kts | 119° |
| 2026-04-29 19:21 | 41.92956 | 8.80493 | 32 ft | 0 kts | 119° |
| 2026-04-29 19:23 | 41.92942 | 8.80532 | 29 ft | 11 kts | 114° |
| 2026-04-29 19:23 | 41.92891 | 8.80560 | 31 ft | 9 kts | 204° |
| 2026-04-29 19:23 | 41.92817 | 8.80513 | 30 ft | 24 kts | 205° |
| 2026-04-29 19:23 | 41.92417 | 8.80261 | 21 ft | 98 kts | 205° |
| 2026-04-29 19:24 | 41.91623 | 8.79766 | 50 ft | 147 kts | 206° |
| 2026-04-29 19:24 | 41.90723 | 8.79147 | 640 ft | 146 kts | 210° |
| 2026-04-29 19:24 | 41.90014 | 8.78130 | 1074 ft | 155 kts | 239° |
| 2026-04-29 19:24 | 41.89481 | 8.76868 | 1621 ft | 158 kts | 240° |
| 2026-04-29 19:25 | 41.88911 | 8.75494 | 1911 ft | 179 kts | 240° |
| 2026-04-29 19:25 | 41.88271 | 8.73967 | 2231 ft | 198 kts | 240° |
| 2026-04-29 19:25 | 41.87549 | 8.72264 | 2525 ft | 221 kts | 240° |
| 2026-04-29 19:25 | 41.86737 | 8.70376 | 2887 ft | 246 kts | 239° |
| 2026-04-29 19:26 | 41.85841 | 8.68315 | 3501 ft | 261 kts | 239° |
| 2026-04-29 19:26 | 41.84914 | 8.66197 | 4403 ft | 265 kts | 239° |
| 2026-04-29 19:26 | 41.83976 | 8.64057 | 5342 ft | 267 kts | 239° |
| 2026-04-29 19:26 | 41.83125 | 8.61826 | 6261 ft | 271 kts | 250° |
| 2026-04-29 19:27 | 41.82755 | 8.59341 | 7123 ft | 275 kts | 267° |
| 2026-04-29 19:27 | 41.82950 | 8.56784 | 7976 ft | 279 kts | 284° |
| 2026-04-29 19:27 | 41.83619 | 8.54320 | 8846 ft | 283 kts | 290° |
| 2026-04-29 19:27 | 41.84336 | 8.51848 | 9722 ft | 285 kts | 290° |
| 2026-04-29 19:28 | 41.85055 | 8.49333 | 10335 ft | 298 kts | 290° |
| 2026-04-29 19:28 | 41.85820 | 8.46634 | 10588 ft | 321 kts | 290° |
| 2026-04-29 19:28 | 41.86636 | 8.43746 | 10935 ft | 339 kts | 290° |
| 2026-04-29 19:28 | 41.87481 | 8.40758 | 11591 ft | 345 kts | 290° |
| 2026-04-29 19:29 | 41.88047 | 8.38756 | 12063 ft | 348 kts | 290° |
| 2026-04-29 19:29 | 41.88913 | 8.35702 | 12793 ft | 352 kts | 290° |
| 2026-04-29 19:29 | 41.89787 | 8.32612 | 13521 ft | 356 kts | 290° |
| 2026-04-29 19:29 | 41.90668 | 8.29491 | 14207 ft | 359 kts | 290° |
| 2026-04-29 19:30 | 41.91554 | 8.26340 | 14778 ft | 363 kts | 290° |
| 2026-04-29 19:30 | 41.92448 | 8.23160 | 14985 ft | 364 kts | 290° |
| 2026-04-29 19:30 | 41.93341 | 8.19984 | 15040 ft | 363 kts | 290° |
| 2026-04-29 19:30 | 41.94232 | 8.16808 | 15091 ft | 365 kts | 290° |
| 2026-04-29 19:31 | 41.95131 | 8.13599 | 15727 ft | 368 kts | 290° |
| 2026-04-29 19:31 | 41.96037 | 8.10375 | 16404 ft | 370 kts | 289° |
| 2026-04-29 19:31 | 41.96950 | 8.07123 | 17048 ft | 373 kts | 289° |
| 2026-04-29 19:31 | 41.97866 | 8.03842 | 17688 ft | 376 kts | 289° |
| 2026-04-29 19:32 | 41.98788 | 8.00534 | 18305 ft | 379 kts | 289° |
| 2026-04-29 19:32 | 41.99714 | 7.97197 | 18851 ft | 382 kts | 289° |
| 2026-04-29 19:32 | 42.00647 | 7.93831 | 19394 ft | 385 kts | 289° |
| 2026-04-29 19:32 | 42.01587 | 7.90444 | 19947 ft | 388 kts | 289° |
| 2026-04-29 19:33 | 42.02535 | 7.87029 | 20493 ft | 391 kts | 289° |
| 2026-04-29 19:33 | 42.03490 | 7.83585 | 21040 ft | 394 kts | 290° |
| 2026-04-29 19:33 | 42.04452 | 7.80113 | 21574 ft | 397 kts | 290° |
| 2026-04-29 19:33 | 42.05418 | 7.76619 | 22102 ft | 400 kts | 290° |
| 2026-04-29 19:34 | 42.06392 | 7.73082 | 22615 ft | 403 kts | 290° |
| 2026-04-29 19:34 | 42.07368 | 7.69532 | 23102 ft | 406 kts | 290° |
| 2026-04-29 19:34 | 42.08351 | 7.65957 | 23578 ft | 409 kts | 290° |
| 2026-04-29 19:34 | 42.09344 | 7.62352 | 23920 ft | 411 kts | 290° |
| 2026-04-29 19:35 | 42.10336 | 7.58742 | 24022 ft | 412 kts | 290° |
| 2026-04-29 19:35 | 42.11325 | 7.55120 | 24042 ft | 412 kts | 290° |
| 2026-04-29 19:35 | 42.12315 | 7.51489 | 24048 ft | 412 kts | 290° |
| 2026-04-29 19:35 | 42.13304 | 7.47862 | 24039 ft | 412 kts | 290° |
| 2026-04-29 19:36 | 42.14290 | 7.44238 | 24039 ft | 412 kts | 290° |
| 2026-04-29 19:36 | 42.15277 | 7.40608 | 24049 ft | 412 kts | 290° |
| 2026-04-29 19:36 | 42.16265 | 7.36982 | 24042 ft | 412 kts | 290° |
| 2026-04-29 19:36 | 42.17253 | 7.33351 | 24046 ft | 412 kts | 290° |
| 2026-04-29 19:37 | 42.18238 | 7.29722 | 24042 ft | 412 kts | 290° |
| 2026-04-29 19:37 | 42.18888 | 7.27322 | 24037 ft | 412 kts | 290° |
| 2026-04-29 19:37 | 42.20201 | 7.22461 | 24037 ft | 412 kts | 290° |
| 2026-04-29 19:37 | 42.21183 | 7.18830 | 24037 ft | 412 kts | 290° |
| 2026-04-29 19:38 | 42.22149 | 7.15248 | 24033 ft | 412 kts | 289° |
| 2026-04-29 19:38 | 42.23125 | 7.11618 | 24037 ft | 412 kts | 289° |
| 2026-04-29 19:38 | 42.24101 | 7.07985 | 24035 ft | 412 kts | 289° |
| 2026-04-29 19:38 | 42.25075 | 7.04344 | 24037 ft | 412 kts | 289° |
| 2026-04-29 19:39 | 42.26047 | 7.00711 | 24032 ft | 412 kts | 289° |
| 2026-04-29 19:39 | 42.27018 | 6.97079 | 24036 ft | 412 kts | 289° |
| 2026-04-29 19:39 | 42.27990 | 6.93442 | 24035 ft | 412 kts | 289° |
| 2026-04-29 19:39 | 42.28958 | 6.89807 | 24034 ft | 412 kts | 289° |
| 2026-04-29 19:40 | 42.29928 | 6.86164 | 24032 ft | 412 kts | 289° |
| 2026-04-29 19:40 | 42.30896 | 6.82530 | 24027 ft | 412 kts | 289° |
| 2026-04-29 19:40 | 42.31866 | 6.78889 | 24027 ft | 412 kts | 289° |
| 2026-04-29 19:40 | 42.32832 | 6.75252 | 24027 ft | 412 kts | 289° |
| 2026-04-29 19:41 | 42.33797 | 6.71609 | 24024 ft | 412 kts | 289° |
| 2026-04-29 19:41 | 42.34760 | 6.67962 | 24022 ft | 412 kts | 289° |
| 2026-04-29 19:41 | 42.35720 | 6.64318 | 24021 ft | 412 kts | 289° |
| 2026-04-29 19:41 | 42.36680 | 6.60665 | 24023 ft | 412 kts | 289° |
| 2026-04-29 19:42 | 42.37637 | 6.57013 | 24023 ft | 412 kts | 289° |
| 2026-04-29 19:42 | 42.38271 | 6.54600 | 24022 ft | 412 kts | 289° |
| 2026-04-29 19:42 | 42.39557 | 6.49712 | 24024 ft | 412 kts | 289° |
| 2026-04-29 19:42 | 42.40515 | 6.46064 | 24025 ft | 412 kts | 289° |
| 2026-04-29 19:43 | 42.41475 | 6.42401 | 24021 ft | 412 kts | 289° |
| 2026-04-29 19:43 | 42.42430 | 6.38747 | 24022 ft | 412 kts | 289° |
| 2026-04-29 19:43 | 42.43382 | 6.35089 | 24022 ft | 412 kts | 289° |
| 2026-04-29 19:43 | 42.44333 | 6.31426 | 24028 ft | 412 kts | 289° |
| 2026-04-29 19:44 | 42.45280 | 6.27769 | 24027 ft | 412 kts | 289° |
| 2026-04-29 19:44 | 42.46228 | 6.24105 | 24037 ft | 412 kts | 289° |
| 2026-04-29 19:44 | 42.47176 | 6.20439 | 24030 ft | 412 kts | 289° |
| 2026-04-29 19:44 | 42.48122 | 6.16780 | 24029 ft | 412 kts | 289° |
| 2026-04-29 19:45 | 42.49068 | 6.13122 | 24022 ft | 412 kts | 289° |
| 2026-04-29 19:45 | 42.50015 | 6.09456 | 24037 ft | 412 kts | 289° |
| 2026-04-29 19:45 | 42.50962 | 6.05791 | 24029 ft | 412 kts | 288° |
| 2026-04-29 19:45 | 42.51907 | 6.02124 | 24034 ft | 412 kts | 288° |
| 2026-04-29 19:46 | 42.52847 | 5.98458 | 23954 ft | 411 kts | 288° |
| 2026-04-29 19:46 | 42.53778 | 5.94827 | 23724 ft | 406 kts | 288° |
| 2026-04-29 19:46 | 42.54701 | 5.91218 | 23471 ft | 404 kts | 288° |
| 2026-04-29 19:46 | 42.55617 | 5.87627 | 23197 ft | 402 kts | 288° |
| 2026-04-29 19:47 | 42.56530 | 5.84050 | 22925 ft | 401 kts | 288° |
| 2026-04-29 19:47 | 42.57430 | 5.80520 | 22658 ft | 399 kts | 288° |
| 2026-04-29 19:47 | 42.58334 | 5.76967 | 22398 ft | 398 kts | 288° |
| 2026-04-29 19:47 | 42.59233 | 5.73425 | 22136 ft | 395 kts | 288° |
| 2026-04-29 19:48 | 42.60127 | 5.69903 | 21883 ft | 395 kts | 288° |
| 2026-04-29 19:48 | 42.60729 | 5.67524 | 21699 ft | 394 kts | 288° |
| 2026-04-29 19:48 | 42.61907 | 5.62868 | 21357 ft | 392 kts | 288° |
| 2026-04-29 19:48 | 42.62786 | 5.59393 | 21004 ft | 385 kts | 288° |
| 2026-04-29 19:49 | 42.63653 | 5.55962 | 20543 ft | 382 kts | 288° |
| 2026-04-29 19:49 | 42.64507 | 5.52563 | 20082 ft | 378 kts | 288° |
| 2026-04-29 19:49 | 42.65352 | 5.49200 | 19612 ft | 375 kts | 288° |
| 2026-04-29 19:49 | 42.66192 | 5.45855 | 19144 ft | 373 kts | 288° |
| 2026-04-29 19:50 | 42.67025 | 5.42528 | 18661 ft | 371 kts | 288° |
| 2026-04-29 19:50 | 42.67852 | 5.39214 | 18158 ft | 370 kts | 288° |
| 2026-04-29 19:50 | 42.68701 | 5.35925 | 17645 ft | 368 kts | 290° |
| 2026-04-29 19:50 | 42.69898 | 5.32867 | 17143 ft | 367 kts | 305° |
| 2026-04-29 19:51 | 42.71635 | 5.30341 | 16806 ft | 368 kts | 319° |
| 2026-04-29 19:51 | 42.73750 | 5.28358 | 16579 ft | 371 kts | 329° |
| 2026-04-29 19:51 | 42.75985 | 5.26626 | 16320 ft | 370 kts | 329° |
| 2026-04-29 19:51 | 42.78203 | 5.24864 | 16056 ft | 368 kts | 328° |
| 2026-04-29 19:52 | 42.80403 | 5.23093 | 15789 ft | 367 kts | 328° |
| 2026-04-29 19:52 | 42.82590 | 5.21324 | 15516 ft | 365 kts | 328° |
| 2026-04-29 19:52 | 42.84772 | 5.19572 | 15261 ft | 363 kts | 328° |
| 2026-04-29 19:52 | 42.86955 | 5.17855 | 15018 ft | 362 kts | 329° |
| 2026-04-29 19:53 | 42.89156 | 5.16186 | 14768 ft | 360 kts | 332° |
| 2026-04-29 19:53 | 42.91312 | 5.14468 | 14536 ft | 356 kts | 326° |
| 2026-04-29 19:53 | 42.93366 | 5.12664 | 14366 ft | 344 kts | 326° |
| 2026-04-29 19:53 | 42.95330 | 5.10985 | 14033 ft | 325 kts | 327° |
| 2026-04-29 19:54 | 42.99304 | 5.07677 | 11922 ft | 334 kts | 333° |
| 2026-04-29 19:54 | 43.01427 | 5.06753 | 11784 ft | 310 kts | 350° |
| 2026-04-29 19:54 | 43.03536 | 5.06734 | 11375 ft | 300 kts | 9° |
| 2026-04-29 19:55 | 43.05477 | 5.07585 | 10807 ft | 297 kts | 27° |
| 2026-04-29 19:55 | 43.07170 | 5.09184 | 10193 ft | 295 kts | 37° |
| 2026-04-29 19:55 | 43.08781 | 5.10906 | 9536 ft | 293 kts | 37° |
| 2026-04-29 19:55 | 43.10381 | 5.12607 | 8866 ft | 290 kts | 38° |
| 2026-04-29 19:56 | 43.11967 | 5.14290 | 8223 ft | 286 kts | 38° |
| 2026-04-29 19:56 | 43.13530 | 5.15949 | 7600 ft | 282 kts | 39° |
| 2026-04-29 19:56 | 43.15072 | 5.17585 | 6979 ft | 278 kts | 39° |
| 2026-04-29 19:56 | 43.16595 | 5.19201 | 6364 ft | 275 kts | 40° |
| 2026-04-29 19:57 | 43.18104 | 5.20803 | 5593 ft | 275 kts | 40° |
| 2026-04-29 19:57 | 43.19125 | 5.21886 | 5111 ft | 275 kts | 39° |
| 2026-04-29 19:57 | 43.21124 | 5.24006 | 4140 ft | 273 kts | 40° |
| 2026-04-29 19:57 | 43.22610 | 5.25580 | 3614 ft | 264 kts | 40° |
| 2026-04-29 19:58 | 43.24005 | 5.27058 | 3435 ft | 242 kts | 40° |
| 2026-04-29 19:58 | 43.25284 | 5.28416 | 3335 ft | 226 kts | 40° |
| 2026-04-29 19:58 | 43.26497 | 5.29707 | 3223 ft | 215 kts | 41° |
| 2026-04-29 19:58 | 43.27644 | 5.30928 | 3166 ft | 201 kts | 41° |
| 2026-04-29 19:59 | 43.28761 | 5.31990 | 3072 ft | 197 kts | 28° |
| 2026-04-29 19:59 | 43.30104 | 5.32421 | 2991 ft | 203 kts | 3° |
| 2026-04-29 19:59 | 43.31487 | 5.32071 | 2782 ft | 200 kts | 347° |
| 2026-04-29 19:59 | 43.32785 | 5.31565 | 2617 ft | 187 kts | 347° |
| 2026-04-29 20:00 | 43.33986 | 5.31100 | 2489 ft | 169 kts | 348° |
| 2026-04-29 20:00 | 43.35080 | 5.30679 | 2352 ft | 159 kts | 348° |
| 2026-04-29 20:00 | 43.36132 | 5.30281 | 2224 ft | 155 kts | 349° |
| 2026-04-29 20:00 | 43.37167 | 5.29889 | 2107 ft | 153 kts | 349° |
| 2026-04-29 20:01 | 43.38141 | 5.29310 | 1979 ft | 156 kts | 326° |
| 2026-04-29 20:01 | 43.38925 | 5.28269 | 1688 ft | 156 kts | 316° |
| 2026-04-29 20:01 | 43.39671 | 5.27208 | 1399 ft | 153 kts | 315° |
| 2026-04-29 20:01 | 43.40401 | 5.26169 | 1122 ft | 149 kts | 314° |
| 2026-04-29 20:02 | 43.41116 | 5.25154 | 858 ft | 146 kts | 315° |
| 2026-04-29 20:02 | 43.41808 | 5.24167 | 571 ft | 140 kts | 316° |
| 2026-04-29 20:02 | 43.42467 | 5.23213 | 316 ft | 136 kts | 315° |
| 2026-04-29 20:02 | 43.42679 | 5.22911 | 231 ft | 135 kts | 315° |
| 2026-04-29 20:03 | 43.43705 | 5.21459 | 40 ft | 100 kts | 314° |
| 2026-04-29 20:03 | 43.44066 | 5.20942 | 28 ft | 40 kts | 312° |
| 2026-04-29 20:03 | 43.44199 | 5.20763 | 27 ft | 18 kts | 333° |
| 2026-04-29 20:03 | 43.44288 | 5.20786 | 22 ft | 12 kts | 39° |
| 2026-04-29 20:04 | 43.44311 | 5.20868 | 20 ft | 9 kts | 91° |
| 2026-04-29 20:04 | 43.44289 | 5.20942 | 20 ft | 8 kts | 124° |
| 2026-04-29 20:04 | 43.44259 | 5.20999 | 20 ft | 7 kts | 127° |
| 2026-04-29 20:04 | 43.44230 | 5.21049 | 20 ft | 6 kts | 131° |
| 2026-04-29 20:05 | 43.44208 | 5.21078 | 21 ft | 3 kts | 137° |
| 2026-04-29 20:05 | 43.44148 | 5.21160 | 24 ft | 16 kts | 134° |
| 2026-04-29 20:05 | 43.44076 | 5.21263 | 29 ft | 14 kts | 134° |
| 2026-04-29 20:05 | 43.44018 | 5.21348 | 27 ft | 11 kts | 134° |
| 2026-04-29 20:06 | 43.43966 | 5.21422 | 28 ft | 12 kts | 133° |
| 2026-04-29 20:06 | 43.43919 | 5.21523 | 31 ft | 14 kts | 94° |
| 2026-04-29 20:06 | 43.43957 | 5.21607 | 39 ft | 9 kts | 43° |
| 2026-04-29 20:06 | 43.43980 | 5.21682 | 41 ft | 10 kts | 95° |
| 2026-04-29 20:07 | 43.43932 | 5.21771 | 42 ft | 13 kts | 135° |
| 2026-04-29 20:07 | 43.43877 | 5.21848 | 43 ft | 10 kts | 134° |
| 2026-04-29 20:07 | 43.43823 | 5.21925 | 45 ft | 12 kts | 134° |
| 2026-04-29 20:07 | 43.43769 | 5.22001 | 46 ft | 11 kts | 137° |
| 2026-04-29 20:08 | 43.43731 | 5.22034 | 47 ft | 9 kts | 152° |
| 2026-04-29 20:08 | 43.43704 | 5.22061 | 48 ft | 6 kts | 132° |
| 2026-04-29 20:08 | 43.43697 | 5.22142 | 50 ft | 5 kts | 70° |
| 2026-04-29 20:08 | 43.43730 | 5.22194 | 51 ft | 5 kts | 44° |
| 2026-04-29 20:09 | 43.43744 | 5.22212 | 51 ft | 5 kts | 44° |
| 2026-04-29 20:09 | 43.43795 | 5.22237 | 51 ft | 8 kts | 30° |
| 2026-04-29 20:09 | 43.43812 | 5.22292 | 51 ft | 5 kts | 75° |
| 2026-04-29 20:09 | 43.43817 | 5.22318 | 51 ft | 0 kts | 74° |